Latest Weather Observations for Gatton

IDQ60901

Issued at 8:01 pm EST Sunday 26 June 2016 (issued every 10 minutes, with the page automatically refreshed every 10 minutes)

About weather observations | Map of Brisbane area stations | Latest observations for Brisbane area | Other Formats
Station Details ID: 040082 Name: UNIVERSITY OF QUEENSLAND GATTON Lat: -27.54 Lon: 152.34 Height: 89.0 m
Data from the previous 72 hours. | See also: Recent months at Gatton
Date/Time
EST
Temp
°C
App
Temp
°C
Dew
Point
°C
Rel
Hum
%
Delta-T
°C
Wind Press
QNH
hPa
Press
MSL
hPa
Rain since
9am
mm
Dir  Spd
km/h
Gust
km/h
Spd
kts
Gust
kts
26/08:00pm 10.3 9.8 7.7 84 1.3 CALM 0 0 0 0 - - 0.0
26/07:30pm 10.6 9.9 7.1 79 1.7 CALM 0 0 0 0 - - 0.0
26/07:00pm 11.4 10.7 6.9 74 2.2 CALM 0 0 0 0 - - 0.0
26/06:30pm 11.7 10.9 6.6 71 2.4 CALM 0 0 0 0 - - 0.0
26/06:00pm 12.1 11.5 7.2 72 2.4 CALM 0 0 0 0 - - 0.0
26/05:30pm 12.7 11.0 7.6 71 2.5 N 6 7 3 4 - - 0.0
26/05:00pm 13.5 11.5 6.4 62 3.4 NNE 6 7 3 4 - - 0.0
26/04:30pm 14.5 12.4 5.8 56 4.2 NNE 6 7 3 4 - - 0.0
26/04:00pm 15.0 14.0 5.5 53 4.5 CALM 0 0 0 0 - - 0.0
26/03:30pm 15.0 13.9 5.2 52 4.6 CALM 0 0 0 0 - - 0.0
26/03:00pm 15.0 12.7 4.7 50 4.8 ENE 6 9 3 5 - - 0.0
26/02:30pm 14.9 12.6 4.6 50 4.8 ENE 6 11 3 6 - - 0.0
26/02:00pm 14.8 12.4 4.2 49 4.9 ENE 6 13 3 7 - - 0.0
26/01:30pm 14.1 11.6 3.6 49 4.8 ENE 6 11 3 6 - - 0.0
26/01:00pm 13.5 10.2 2.7 48 4.8 ENE 9 11 5 6 - - 0.0
26/12:30pm 13.7 12.0 3.8 51 4.5 E 2 7 1 4 - - 0.0
26/12:00pm 12.7 10.0 2.8 51 4.4 ESE 6 9 3 5 - - 0.0
26/11:30am 11.7 9.4 3.0 55 3.8 ESE 4 9 2 5 - - 0.0
26/11:00am 11.4 9.6 3.4 58 3.5 NNE 2 9 1 5 - - 0.0
26/10:30am 9.8 8.2 2.4 60 3.2 CALM 0 0 0 0 - - 0.0
26/10:00am 9.3 7.7 2.6 63 2.9 CALM 0 7 0 4 - - 0.0
26/09:30am 7.7 5.4 2.8 71 2.1 SW 4 7 2 4 - - 0.0
26/09:00am 6.5 3.8 2.4 75 1.7 W 6 9 3 5 - - 0.0
26/08:30am 5.3 2.6 2.5 82 1.1 W 6 9 3 5 - - 0.0
26/08:00am 4.5 1.7 1.9 83 1.0 WNW 6 9 3 5 - - 0.0
26/07:30am 4.0 2.3 1.7 85 0.9 CALM 0 0 0 0 - - 0.0
26/07:00am 3.5 0.6 1.5 87 0.8 W 6 11 3 6 - - 0.0
26/06:30am 3.3 0.1 1.0 85 0.9 W 7 11 4 6 - - 0.0
26/06:00am 2.9 -0.3 1.0 87 0.7 WSW 7 11 4 6 - - 0.0
26/05:30am 2.4 -0.8 0.6 88 0.7 W 7 9 4 5 - - 0.0
26/05:00am 2.2 -1.1 0.3 87 0.7 W 7 11 4 6 - - 0.0
26/04:30am 1.4 -1.8 -0.2 89 0.6 W 6 9 3 5 - - 0.0
26/04:00am 1.8 -0.6 0.0 88 0.7 W 2 7 1 4 - - 0.0
26/03:30am 1.8 -1.1 -0.8 83 0.9 W 4 9 2 5 - - 0.0
26/03:00am 3.1 -0.2 0.2 81 1.1 W 7 11 4 6 - - 0.0
26/02:30am 3.6 0.0 0.5 80 1.2 WSW 9 13 5 7 - - 0.0
26/02:00am 3.4 -0.2 0.3 80 1.2 WSW 9 13 5 7 - - 0.0
26/01:30am 3.9 -0.1 0.4 78 1.3 WSW 11 13 6 7 - - 0.0
26/01:00am 3.9 0.2 0.1 76 1.4 WSW 9 11 5 6 - - 0.0
26/12:30am 5.2 1.6 0.4 71 1.9 WSW 9 13 5 7 - - 0.0
26/12:00am 6.5 2.2 1.0 68 2.2 W 13 17 7 9 - - 0.0
 
Date/Time
EST
Temp
°C
App
Temp
°C
Dew
Point
°C
Rel
Hum
%
Delta-T
°C
Wind Press
QNH
hPa
Press
MSL
hPa
Rain since
9am
mm
Dir  Spd
km/h
Gust
km/h
Spd
kts
Gust
kts
25/11:30pm 6.5 2.2 0.8 67 2.3 W 13 17 7 9 - - 0.0
25/11:00pm 6.8 2.5 1.1 67 2.3 W 13 19 7 10 - - 0.0
25/10:30pm 7.0 2.3 1.1 66 2.4 W 15 20 8 11 - - 0.0
25/10:00pm 7.7 3.0 1.1 63 2.7 W 15 20 8 11 - - 0.0
25/09:30pm 7.8 2.8 1.4 64 2.6 W 17 20 9 11 - - 0.0
25/09:00pm 8.0 3.4 1.6 64 2.6 W 15 19 8 10 - - 0.0
25/08:30pm 8.4 3.8 1.3 61 2.9 W 15 20 8 11 - - 0.0
25/08:00pm 9.4 4.4 1.6 58 3.2 W 17 22 9 12 - - 0.0
25/07:30pm 9.3 5.1 1.5 58 3.2 W 13 17 7 9 - - 0.0
25/07:00pm 8.9 5.3 0.9 57 3.3 W 9 13 5 7 - - 0.0
25/06:30pm 9.8 6.3 1.2 55 3.6 W 9 13 5 7 - - 0.0
25/06:00pm 11.3 7.7 0.4 47 4.5 W 9 13 5 7 - - 0.0
25/05:30pm 12.5 8.0 -0.4 41 5.3 WSW 13 17 7 9 - - 0.0
25/05:00pm 13.7 8.8 -0.3 38 5.8 WSW 15 22 8 12 - - 0.0
25/04:30pm 15.2 9.5 -0.9 33 6.7 WSW 19 26 10 14 - - 0.0
25/04:00pm 15.9 10.5 -1.2 31 7.1 WSW 17 28 9 15 - - 0.0
25/03:30pm 16.3 10.3 -1.7 29 7.5 WSW 20 30 11 16 - - 0.0
25/03:00pm 16.5 10.6 -1.1 30 7.4 W 20 28 11 15 - - 0.0
25/02:30pm 16.7 10.6 0.4 33 7.1 W 22 32 12 17 - - 0.0
25/02:00pm 16.4 10.7 -0.8 31 7.3 WSW 19 30 10 16 - - 0.0
25/01:30pm 16.0 9.7 -0.7 32 7.0 WSW 22 32 12 17 - - 0.0
25/01:00pm 15.5 9.6 -1.1 32 6.9 WSW 20 33 11 18 - - 0.0
25/12:30pm 15.2 8.7 0.2 36 6.4 WSW 24 33 13 18 - - 0.0
25/12:00pm 14.9 8.4 0.0 36 6.3 W 24 35 13 19 - - 0.0
25/11:30am 14.6 8.7 1.5 41 5.7 W 22 35 12 19 - - 0.0
25/11:00am 13.9 8.3 1.5 43 5.4 WSW 20 30 11 16 - - 0.0
25/10:30am 13.2 6.9 1.8 46 4.9 W 24 35 13 19 - - 0.0
25/10:00am 12.2 5.4 0.6 45 4.9 WSW 26 35 14 19 - - 0.0
25/09:30am 11.9 5.2 1.3 48 4.5 WSW 26 35 14 19 - - 0.0
25/09:00am 11.2 4.5 1.2 50 4.2 WSW 26 39 14 21 - - 0.0
25/08:30am 10.6 3.9 1.4 53 3.9 WSW 26 39 14 21 - - 0.0
25/08:00am 10.1 3.4 1.5 55 3.6 WSW 26 39 14 21 - - 0.0
25/07:30am 9.1 3.2 1.8 60 3.0 WSW 22 30 12 16 - - 0.0
25/07:00am 8.5 3.0 1.6 62 2.8 WSW 20 30 11 16 - - 0.0
25/06:30am 8.5 3.2 1.6 62 2.8 WSW 19 32 10 17 - - 0.0
25/06:00am 9.1 3.2 1.8 60 3.0 WSW 22 33 12 18 - - 0.0
25/05:30am 9.6 3.3 1.8 58 3.3 WSW 24 35 13 19 - - 0.0
25/05:00am 9.6 4.3 2.0 59 3.2 WSW 19 30 10 16 - - 0.0
25/04:30am 9.4 4.5 2.3 61 3.0 WSW 17 30 9 16 - - 0.0
25/04:00am 9.8 4.4 2.6 61 3.1 WSW 20 35 11 19 - - 0.0
25/03:30am 10.5 4.4 2.6 58 3.4 WSW 24 39 13 21 - - 0.0
25/03:00am 10.8 4.3 2.4 56 3.6 WSW 26 39 14 21 - - 0.0
25/02:30am 11.2 5.6 3.3 58 3.5 WSW 22 32 12 17 - - 0.0
25/02:00am 11.6 4.4 3.1 56 3.7 WSW 30 44 16 24 - - 0.0
25/01:30am 11.7 3.8 2.5 53 4.0 WSW 33 52 18 28 - - 0.0
25/01:00am 11.9 2.9 2.6 53 4.1 WSW 39 61 21 33 - - 0.0
25/12:30am 12.0 2.2 3.5 56 3.8 W 44 63 24 34 - - 0.0
25/12:15am 12.3 2.2 3.8 56 3.8 W 46 69 25 37 - - 0.0
25/12:00am 12.3 2.8 3.8 56 3.8 W 43 56 23 30 - - 0.0
 
Date/Time
EST
Temp
°C
App
Temp
°C
Dew
Point
°C
Rel
Hum
%
Delta-T
°C
Wind Press
QNH
hPa
Press
MSL
hPa
Rain since
9am
mm
Dir  Spd
km/h
Gust
km/h
Spd
kts
Gust
kts
24/11:30pm 12.9 3.3 4.3 56 3.9 W 44 59 24 32 - - 0.0
24/11:00pm 13.3 4.0 5.2 58 3.8 W 43 61 23 33 - - 0.0
24/10:50pm 13.6 4.4 5.3 57 3.9 W 43 63 23 34 - - 0.0
24/10:30pm 13.7 4.6 5.8 59 3.8 W 43 57 23 31 - - 0.0
24/10:00pm 13.9 5.3 6.3 60 3.7 W 41 56 22 30 - - 0.0
24/09:38pm 14.4 5.8 6.7 60 3.7 WSW 41 67 22 36 - - 0.0
24/09:30pm 14.5 6.4 6.8 60 3.8 WSW 39 56 21 30 - - 0.0
24/09:28pm 14.2 6.4 6.8 61 3.6 WSW 37 56 20 30 - - 0.0
24/09:00pm 14.6 6.4 6.7 59 3.9 W 39 56 21 30 - - 0.0
24/08:55pm 14.9 7.1 6.7 58 4.0 WSW 37 56 20 30 - - 0.0
24/08:30pm 14.9 8.1 6.7 58 4.0 WSW 32 48 17 26 - - 0.0
24/08:00pm 14.9 8.8 6.5 57 4.1 WSW 28 35 15 19 - - 0.0
24/07:56pm 15.0 8.5 6.3 56 4.2 WSW 30 48 16 26 - - 0.0
24/07:30pm 15.3 8.1 6.1 54 4.5 WSW 33 44 18 24 - - 0.0
24/07:00pm 15.4 8.8 6.1 54 4.5 WSW 30 41 16 22 - - 0.0
24/06:30pm 15.8 9.7 6.8 55 4.4 W 28 39 15 21 - - 0.0
24/06:00pm 16.6 10.6 8.8 60 4.0 W 30 50 16 27 - - 0.0
24/05:45pm 16.8 11.5 9.7 63 3.7 W 28 46 15 25 - - 0.0
24/05:30pm 17.3 11.1 10.0 62 3.9 WSW 33 46 18 25 - - 0.0
24/05:00pm 17.7 13.0 10.6 63 3.8 W 26 35 14 19 - - 0.0
24/04:52pm 17.8 12.8 10.9 64 3.7 W 28 46 15 25 - - 0.0
24/04:30pm 18.1 13.5 11.0 63 3.9 W 26 37 14 20 - - 0.0
24/04:00pm 18.9 13.8 10.7 59 4.4 W 28 39 15 21 - - 0.0
24/03:40pm 19.2 15.0 13.4 69 3.3 W 28 46 15 25 - - 0.0
24/03:30pm 18.4 12.9 12.6 69 3.3 W 33 46 18 25 - - 0.0
24/03:22pm 18.9 14.4 12.6 67 3.5 W 28 46 15 25 - - 0.0
24/03:00pm 19.9 15.2 13.1 65 3.9 W 30 46 16 25 - - 0.0
24/02:30pm 19.4 16.2 14.2 72 3.0 WSW 24 41 13 22 - - 0.0
24/02:00pm 20.6 15.7 13.6 64 4.0 W 32 44 17 24 - - 0.0
24/01:30pm 21.5 18.0 13.4 60 4.7 W 24 37 13 20 - - 0.0
24/01:00pm 20.2 17.8 13.9 67 3.6 WSW 19 26 10 14 - - 0.0
24/12:30pm 20.3 17.1 13.0 63 4.2 W 22 33 12 18 - - 0.0
24/12:00pm 19.3 15.5 13.5 69 3.3 W 26 41 14 22 - - 0.0
24/11:30am 18.7 15.1 14.2 75 2.6 W 26 41 14 22 - - 0.0
24/11:00am 18.8 16.7 14.7 77 2.4 W 19 28 10 15 - - 0.0
24/10:30am 18.1 15.8 14.2 78 2.2 W 19 30 10 16 - - 0.0
24/10:00am 17.7 16.7 14.6 82 1.8 W 13 17 7 9 - - 0.0
24/09:30am 17.2 16.1 14.3 83 1.7 W 13 19 7 10 - - 0.0
24/09:00am 17.1 16.6 13.8 81 1.9 W 9 13 5 7 - - 0.4
24/08:30am 17.1 15.4 13.6 80 2.0 W 15 26 8 14 - - 0.4
24/08:00am 16.6 16.5 13.9 84 1.5 W 7 11 4 6 - - 0.4
24/07:30am 16.0 15.4 13.5 85 1.4 W 9 13 5 7 - - 0.4
24/07:00am 15.7 15.0 13.2 85 1.4 WSW 9 13 5 7 - - 0.4
24/06:30am 15.4 14.6 12.9 85 1.4 W 9 11 5 6 - - 0.4
24/06:00am 14.1 14.2 12.7 91 0.8 WSW 4 9 2 5 - - 0.4
24/05:30am 14.3 15.1 12.7 90 0.9 CALM 0 0 0 0 - - 0.4
24/05:00am 14.3 15.1 12.7 90 0.9 CALM 0 0 0 0 - - 0.4
24/04:30am 14.4 15.2 12.6 89 1.0 CALM 0 0 0 0 - - 0.4
24/04:00am 14.6 13.8 12.8 89 1.0 W 9 17 5 9 - - 0.4
24/03:30am 14.5 13.3 12.9 90 0.9 W 11 15 6 8 - - 0.4
24/03:00am 14.6 13.8 12.8 89 1.0 W 9 13 5 7 - - 0.4
24/02:30am 14.7 14.3 12.9 89 1.0 W 7 11 4 6 - - 0.4
24/02:00am 14.5 15.3 12.7 89 1.0 CALM 0 0 0 0 - - 0.4
24/01:30am 14.7 15.5 12.7 88 1.1 CALM 0 0 0 0 - - 0.4
24/01:00am 14.8 15.7 12.8 88 1.1 CALM 0 0 0 0 - - 0.4
24/12:30am 14.8 14.4 13.0 89 1.0 W 7 11 4 6 - - 0.4
24/12:00am 14.8 14.7 13.2 90 0.9 NNW 6 9 3 5 - - 0.4
 
Date/Time
EST
Temp
°C
App
Temp
°C
Dew
Point
°C
Rel
Hum
%
Delta-T
°C
Wind Press
QNH
hPa
Press
MSL
hPa
Rain since
9am
mm
Dir  Spd
km/h
Gust
km/h
Spd
kts
Gust
kts
23/11:30pm 14.9 15.8 12.8 87 1.2 CALM 0 0 0 0 - - 0.4
23/11:00pm 14.8 15.3 12.8 88 1.1 WNW 2 11 1 6 - - 0.4
23/10:30pm 15.2 14.9 12.7 85 1.4 NW 6 9 3 5 - - 0.4
23/10:00pm 15.0 14.6 13.0 88 1.1 N 7 9 4 5 - - 0.2
23/09:30pm 15.2 16.1 12.9 86 1.3 CALM 0 7 0 4 - - 0.2
23/09:00pm 15.2 14.9 12.7 85 1.4 NNW 6 9 3 5 - - 0.2
23/08:30pm 15.9 16.6 12.3 79 2.0 CALM 0 0 0 0 - - 0.2

Latest Capital City Observations: Canberra | Sydney | Melbourne | Brisbane | Adelaide | Perth | Hobart | Darwin

Other Formats:

Comma delimited format used in spreadsheet applications
http://www.bom.gov.au/fwo/IDQ60901/IDQ60901.94562.axf

JavaScript Object Notation format (JSON) in row-major order
http://www.bom.gov.au/fwo/IDQ60901/IDQ60901.94562.json